Pagrindinis puslapis
METAR-TAF:

METAR-TAF

Oro uostai :

Ispartos Suleimano Demirelio oro uostas

Isparta, Turkija

platuma: 37-51N, ilguma: 030-22E, Aukštis: 864 m

Dabartinis oras

Ataskaita buvo paskelbta 22 minutes, ne 21:50 UTC
Vėjas 4 kt iš Rytų/Šiaurės Rytų
Temperatūra 4°C
Drėgmė 87%
Slėgis 1024 hPa
Matomumas 10 km arba daugiau
nėra debesų žemiau 1500 m ir nėra kamuolinių lietaus debesų

METAR: LTFC 152150Z 07004KT CAVOK 04/02 Q1024 RMK RWY23 10002KT

Laikas: 01:12 (22:12 UTC)

Prognozė

Ataskaita buvo paskelbta 5 valandos ir 32 minutes, ne 16:40 UTC
Prognozė galioja nuo 15 metu 18 UTC su 16 metu 18 UTC
Vėjas 2 kt nuo kintamojo kryptimis
Matomumas 10 km arba daugiau
Išsisklaidę debesys ne aukštis 3500 ft
Tapsmas
nuo 15 metu 18 UTC su 15 metu 21 UTC
Matomumas 10 km arba daugiau
nėra debesų žemiau 1500 m ir nėra kamuolinių lietaus debesų

TAF: LTFC 151640Z 1518/1618 VRB02KT 9999 SCT035 BECMG 1518/1521 CAVOK

Orai ataskaitas ir orų prognozės (METAR, TAF).

turimą stotys yra geltonos ir raudonos taškus žemėlapyje.

Perkelti pele per norėdami pamatyti stoties vardą.

Tada spustelėkite, norėdami matyti oro stebėjimo ir prognozės.

Norėdami pakeisti žemėlapį: spustelėkite ant žalios mygtukų su juodo kryžiaus žemyn,; žalią mygtuką su brūkšneliu, jei norite nutolinti; arba žalių rodyklių gretimoms žemėlapius.


METAR-TAF: